x

East Dellwood (46207) Wave Buoy

7:00pm - Sat 25th Mar 2017 All times are PDT. -7 hours from GMT.

  • Sig Wave height 9.8ft
  • Peak Period 10s
  • Wind
    25mph, 31mph gusts
  • Sea Temp 47°f
  • Air Temp 53°f
  • Sea Pressure 1011.1mb
  • East Dellwood
  • East Dellwood

More Historic Weather Station data

Upgrade to MSW Pro to gain access to the past 30 days of data for over 8000 Wavebouys and Weather Stations around the globe.

Join Pro

Comparision Forecast

View Surf forecast
   
Sat 03/25 7:00pm 10ft 10s 25 31 mph 1011.1mb 47f 53f
6:00pm 10ft 10s 22 27 mph 1012mb 47f 53f
5:00pm 10ft 8s 22 27 mph 1012.6mb 47f 53f
4:00pm 10ft 10s 18 20 mph 1013.6mb 47f 52f
3:00pm 11ft 9s 20 25 mph 1013.8mb 47f 53f
2:00pm 11ft 10s 16 20 mph 1014.4mb 47f 52f
1:00pm 11ft 10s 18 22 mph 1014.4mb 47f 52f
12:00pm 11ft 8s 16 20 mph 1014.2mb 47f 53f
11:00am 11ft 10s 13 18 mph 1014.1mb 47f 52f
10:00am 12ft 11s 9 13 mph 1014.2mb 47f 51f
9:00am 12ft 10s 22 29 mph 1013.7mb 47f 50f
8:00am 12.5ft 10s 16 20 mph 1013.2mb 47f 52f
7:00am 12.5ft 10s 16 20 mph 1012.7mb 47f 52f
5:00am 13.5ft 9s 22 29 mph 1012.1mb 47f 52f
4:00am 14ft 10s 18 22 mph 1011.5mb 47f 53f
3:00am 14ft 10s 18 22 mph 1010.8mb 47f 53f
2:00am 13.5ft 10s 20 25 mph 1010.1mb 47f 52f
1:00am 13ft 10s 25 31 mph 1008.7mb 47f 52f
12:00am 14ft 10s 25 31 mph 1007.5mb 47f 52f
Fri 03/24 11:00pm 12.5ft 11s 25 34 mph 1006.4mb 47f 53f
10:00pm 12ft 10s 25 34 mph 1005.3mb 47f 53f
9:00pm 14ft 11s 27 36 mph 1004.2mb 47f 53f
8:00pm 13ft 11s 27 36 mph 1002.7mb 47f 53f
7:00pm 12ft 12s 22 27 mph 1001.5mb 47f 53f
6:00pm 14ft 11s 22 27 mph 1000.5mb 47f 53f
5:00pm 12ft 12s 22 27 mph 999.4mb 47f 54f
4:00pm 11ft 10s 22 27 mph 998mb 47f 55f
3:00pm 13ft 11s 20 25 mph 997.1mb 47f 54f
2:00pm 13ft 11s 13 20 mph 996mb 47f 54f
1:00pm 13ft 10s 18 20 mph 995.6mb 47f 54f
12:00pm 13.5ft 11s 20 25 mph 995.5mb 47f 54f
11:00am 15.5ft 11s 22 27 mph 995mb 47f 54f
10:00am 16ft 11s 20 29 mph 994.9mb 47f 54f
9:00am 15.5ft 10s 22 29 mph 994.9mb 47f 55f
8:00am 16ft 11s 22 27 mph 995.1mb 47f 55f
7:00am 15.5ft 11s 20 25 mph 995.2mb 47f 55f
6:00am 15ft 12s 20 25 mph 995.5mb 47f 55f
5:00am 16ft 10s 27 31 mph 995.5mb 47f 55f
4:00am 15.5ft 11s 22 31 mph 996.2mb 47f 55f
3:00am 15ft 12s 25 34 mph 996.6mb 47f 55f
2:00am 16.5ft 12s 27 34 mph 996.7mb 47f 55f
1:00am 17.5ft 11s 22 29 mph 997mb 47f 55f
12:00am 18.5ft 11s 22 31 mph 997mb 47f 55f
Thu 03/23 11:00pm 18.5ft 11s 22 29 mph 997mb 47f 55f
9:00pm 21ft 10s 38 51 mph 996.1mb 47f 54f
8:00pm 23ft 10s 43 56 mph 996.2mb 47f 54f
7:00pm  -   -  45
mph
996.3mb - 54f
6:00pm 17.5ft 9s 43 58 mph 997.3mb 47f 54f
5:00pm 15ft 8s 40 51 mph 998.8mb 47f 54f
4:00pm 12.5ft 8s 38 45 mph 1000.1mb 47f 54f
3:00pm 12ft 7s 36 45 mph 1001.2mb 47f 54f
2:00pm 10ft 8s 36
mph
1002.6mb 47f 54f
1:00pm 9ft 8s 31 38 mph 1003.6mb 47f 55f
12:00pm 8ft 9s 27 31 mph 1004.7mb 47f 54f
11:00am 8.5ft 9s 25 34 mph 1005.4mb 47f 53f
10:00am 8ft 10s 25
mph
1006mb 47f 53f
9:00am 9ft 9s 22 29 mph 1006.7mb 47f 53f
8:00am 8.5ft 8s 22 29 mph 1007.5mb 47f 53f
7:00am 8.5ft 10s 20 25 mph 1008.1mb 47f 53f
6:00am 9ft 10s 18 25 mph 1008.6mb 47f 53f
5:00am 9.5ft 8s 16 20 mph 1008.9mb 47f 53f
4:00am 9ft 8s 20 25 mph 1009mb 47f 53f
3:00am 9.5ft 9s 22 27 mph 1008.7mb 47f 53f
2:00am 9ft 8s 25 29 mph 1008.2mb 47f 53f
1:00am 9ft 8s 27 31 mph 1007.5mb 47f 53f
12:00am 8ft 6s 27 34 mph 1006.9mb 47f 53f
Wed 03/22 10:00pm 7.5ft 6s 25 29 mph 1006.3mb 47f 52f
9:00pm 7ft 10s 25 34 mph 1006mb 47f 52f
8:00pm 6.5ft 9s 25 29 mph 1005.5mb 47f 52f
7:00pm 6ft 10s 20 22 mph 1005.3mb 47f 52f
6:00pm 6ft 10s 20 22 mph 1005.1mb 47f 52f
5:00pm 6.5ft 10s 16 18 mph 1005.1mb 47f 51f
4:00pm 7ft 12s 22 31 mph 1004.4mb 47f 52f
3:00pm 6.5ft 12s 20 27 mph 1003.8mb 47f 53f
2:00pm 6.5ft 13s 22 27 mph 1003.2mb 47f 53f
1:00pm 7ft 13s 18 22 mph 1002.7mb 47f 53f
12:00pm 6.5ft 13s 18 22 mph 1002mb 47f 53f
11:00am 6.5ft 14s 22 29 mph 1001.7mb 47f 51f
10:00am 6.5ft 10s 18 25 mph 1001.1mb 47f 53f
9:00am 6.5ft 13s 20 22 mph 1000.6mb 47f 53f
8:00am 6.5ft 14s 20 25 mph 1000.1mb 47f 52f
7:00am 6ft 13s 16 18 mph 999.6mb 47f 53f
6:00am 6ft 14s 13 18 mph 999.2mb 47f 53f
5:00am 7ft 13s 16 20 mph 998.9mb 47f 53f
4:00am 6ft 14s 18 25 mph 998.6mb 47f 53f